McFall, Missouri
Current Conditions -  °F | °C
As of 5:53 PM on Thursday 18 Dec 2014 (Local Time) from KLWD Reporting Station
Overcast Overcast  
Wind Chill: 29°   Ceiling: 2400
Heat Index: 29°   Visibility: 10mi
Dew Point: 25°   Wind: 0mph
Humidity: 85%   Direction: NA
Pressure: 30.22"   Gusts: NA
Location:  40.11°N, 94.22°W
Report Text: KLWD 182353Z AUTO 00000KT 10SM OVC024 M02/M04 A3022 RMK AO2 SLP250 T10171039 11011 21028 53007
Loading
Personal Weather Stations






























Interactive Weather Map New forecast layout! Learn more

10-Day Weather Forecast

Advertisements
Track Severe Weather on mobile